createdAt,value
2019-06-01T00:02:11.380Z,15.50
2019-06-01T00:04:40.923Z,15.20
2019-06-01T00:07:09.830Z,15.23
2019-06-01T00:09:39.021Z,15.33
2019-06-01T00:12:07.872Z,15.55
2019-06-01T00:14:36.601Z,16.87
2019-06-01T00:17:05.341Z,17.63
2019-06-01T00:19:34.060Z,17.53
2019-06-01T00:22:02.797Z,16.47
2019-06-01T00:24:31.537Z,17.10
2019-06-01T00:27:00.273Z,16.37
2019-06-01T00:29:29.009Z,17.40
2019-06-01T00:31:57.739Z,17.33
2019-06-01T00:34:26.469Z,16.57
2019-06-01T00:36:55.188Z,16.50
2019-06-01T00:39:23.918Z,15.97
2019-06-01T00:41:52.662Z,16.27
2019-06-01T00:44:21.385Z,15.72
2019-06-01T00:46:50.775Z,17.03
2019-06-01T00:49:19.649Z,14.93
2019-06-01T00:51:49.079Z,15.63
2019-06-01T00:54:17.914Z,17.07
2019-06-01T00:56:47.419Z,14.83
2019-06-01T00:59:16.170Z,14.75
2019-06-01T01:01:45.886Z,15.47
2019-06-01T01:04:14.724Z,14.78
2019-06-01T01:06:44.420Z,15.70
2019-06-01T01:09:13.274Z,13.93
2019-06-01T01:11:42.016Z,15.17
2019-06-01T01:14:10.748Z,14.67
2019-06-01T01:16:39.491Z,16.03
2019-06-01T01:19:08.209Z,14.30
2019-06-01T01:21:36.945Z,14.13
2019-06-01T01:24:05.663Z,15.23
2019-06-01T01:26:34.388Z,14.23
2019-06-01T01:29:03.112Z,15.07
2019-06-01T01:31:31.844Z,14.57
2019-06-01T01:34:00.610Z,15.00
2019-06-01T01:36:29.329Z,14.63
2019-06-01T01:38:58.446Z,14.50
2019-06-01T01:41:27.284Z,13.55
2019-06-01T01:43:56.547Z,13.60
2019-06-01T01:46:25.357Z,14.65
2019-06-01T01:48:54.301Z,14.77
2019-06-01T01:51:23.094Z,15.23
2019-06-01T01:53:53.008Z,14.53
2019-06-01T01:56:21.855Z,13.60
2019-06-01T01:58:50.685Z,14.10
2019-06-01T02:01:22.721Z,14.85
2019-06-01T02:03:51.435Z,14.30
2019-06-01T02:06:20.273Z,14.65
2019-06-01T02:08:49.016Z,14.75
2019-06-01T02:11:17.763Z,14.90
2019-06-01T02:13:46.493Z,15.87
2019-06-01T02:16:15.213Z,13.83
2019-06-01T02:18:43.957Z,14.40
2019-06-01T02:21:12.674Z,14.87
2019-06-01T02:23:41.416Z,12.90
2019-06-01T02:26:10.140Z,13.47
2019-06-01T02:28:38.880Z,12.87
2019-06-01T02:31:07.596Z,12.73
2019-06-01T02:33:36.352Z,10.80
2019-06-01T02:36:05.515Z,10.70
2019-06-01T02:38:34.210Z,10.15
2019-06-01T02:41:03.363Z,9.93
2019-06-01T02:43:33.389Z,9.83
2019-06-01T02:46:02.783Z,10.57
2019-06-01T02:48:32.130Z,9.10
2019-06-01T02:51:01.830Z,9.77
2019-06-01T02:53:30.988Z,9.05
2019-06-01T02:55:59.951Z,9.10
2019-06-01T02:58:28.831Z,9.08
2019-06-01T03:01:12.707Z,9.17
2019-06-01T03:03:42.426Z,7.92
2019-06-01T03:06:12.994Z,7.20
2019-06-01T03:08:43.289Z,7.42
2019-06-01T03:11:14.056Z,6.67
2019-06-01T03:13:44.554Z,7.03
2019-06-01T03:16:15.717Z,6.25
2019-06-01T03:18:46.047Z,6.60
2019-06-01T03:21:17.709Z,6.25
2019-06-01T03:23:48.383Z,7.03
2019-06-01T03:26:19.790Z,7.65
2019-06-01T03:28:51.638Z,7.25
2019-06-01T03:31:20.359Z,9.93
2019-06-01T03:33:49.105Z,9.40
2019-06-01T03:36:18.106Z,8.50
2019-06-01T03:38:46.900Z,8.48
2019-06-01T03:41:15.626Z,8.83
2019-06-01T03:43:44.361Z,7.87
2019-06-01T03:46:13.169Z,8.87
2019-06-01T03:48:41.970Z,8.25
2019-06-01T03:51:11.749Z,7.93
2019-06-01T03:53:40.835Z,7.85
2019-06-01T03:56:09.578Z,7.17
2019-06-01T03:58:38.314Z,6.10
2019-06-01T04:01:07.182Z,6.37
2019-06-01T04:03:35.960Z,5.60
2019-06-01T04:06:05.306Z,4.83
2019-06-01T04:08:34.122Z,6.12
2019-06-01T04:11:03.520Z,7.03
2019-06-01T04:13:32.313Z,7.08
2019-06-01T04:16:01.749Z,6.53
2019-06-01T04:18:30.581Z,6.90
2019-06-01T04:20:59.305Z,6.67
2019-06-01T04:23:28.117Z,5.93
2019-06-01T04:25:56.848Z,5.62
2019-06-01T04:28:26.193Z,5.47
2019-06-01T04:30:54.993Z,4.78
2019-06-01T04:33:23.786Z,5.67
2019-06-01T04:35:52.574Z,6.08
2019-06-01T04:38:21.311Z,6.33
2019-06-01T04:40:50.168Z,7.77
2019-06-01T04:43:18.899Z,6.83
2019-06-01T04:45:47.624Z,7.08
2019-06-01T04:48:16.355Z,7.13
2019-06-01T04:50:45.101Z,6.23
2019-06-01T04:53:15.117Z,5.75
2019-06-01T04:55:44.023Z,5.70
2019-06-01T04:58:13.070Z,6.75
2019-06-01T05:00:42.023Z,5.55
2019-06-01T05:03:11.915Z,5.03
2019-06-01T05:05:41.250Z,4.85
2019-06-01T05:08:12.184Z,4.33
2019-06-01T05:10:40.449Z,4.58
2019-06-01T05:13:09.466Z,5.25
2019-06-01T05:15:38.245Z,3.90
2019-06-01T05:18:07.957Z,4.23
2019-06-01T05:20:36.687Z,4.35
2019-06-01T05:23:06.578Z,4.67
2019-06-01T05:25:35.502Z,4.95
2019-06-01T05:28:06.987Z,4.65
2019-06-01T05:30:34.604Z,5.25
2019-06-01T05:33:03.357Z,5.30
2019-06-01T05:35:32.082Z,3.90
2019-06-01T05:38:00.812Z,4.40
2019-06-01T05:40:29.612Z,3.77
2019-06-01T05:42:58.521Z,4.85
2019-06-01T05:45:28.526Z,3.70
2019-06-01T05:47:57.252Z,3.52
2019-06-01T05:50:25.988Z,3.87
2019-06-01T05:52:54.729Z,3.87
2019-06-01T05:55:23.462Z,3.60
2019-06-01T05:57:52.183Z,2.90
2019-06-01T06:00:23.886Z,3.50
2019-06-01T06:02:52.617Z,3.12
2019-06-01T06:05:23.525Z,2.60
2019-06-01T06:07:52.264Z,3.00
2019-06-01T06:10:22.117Z,2.30
2019-06-01T06:12:52.800Z,2.65
2019-06-01T06:15:21.849Z,3.27
2019-06-01T06:17:50.653Z,3.00
2019-06-01T06:20:22.106Z,3.42
2019-06-01T06:22:50.876Z,3.35
2019-06-01T06:25:19.618Z,3.08
2019-06-01T06:27:48.577Z,3.45
2019-06-01T06:30:17.488Z,2.58
2019-06-01T06:32:46.203Z,2.72
2019-06-01T06:35:17.567Z,2.80
2019-06-01T06:37:46.294Z,3.10
2019-06-01T06:40:15.958Z,2.80
2019-06-01T06:42:44.750Z,3.08
2019-06-01T06:45:14.668Z,3.35
2019-06-01T06:47:44.034Z,2.85
2019-06-01T06:50:16.462Z,3.05
2019-06-01T06:52:46.250Z,3.10
2019-06-01T06:55:15.725Z,2.65
2019-06-01T07:00:12.478Z,3.17
2019-06-01T07:02:41.213Z,3.10
2019-06-01T07:05:11.287Z,3.10
2019-06-01T07:07:40.014Z,2.92
2019-06-01T07:10:10.935Z,3.08
2019-06-01T07:12:39.783Z,2.60
2019-06-01T07:15:08.497Z,3.12
2019-06-01T07:17:37.283Z,3.02
2019-06-01T07:20:06.457Z,3.05
2019-06-01T07:22:35.182Z,2.90
2019-06-01T07:25:05.861Z,2.60
2019-06-01T07:27:36.983Z,3.15
2019-06-01T07:30:06.793Z,3.10
2019-06-01T07:32:35.548Z,3.25
2019-06-01T07:35:08.349Z,3.27
2019-06-01T07:37:37.100Z,3.50
2019-06-01T07:40:07.140Z,2.90
2019-06-01T07:42:36.403Z,3.52
2019-06-01T07:45:06.898Z,3.25
2019-06-01T07:47:35.723Z,3.65
2019-06-01T07:50:09.739Z,3.27
2019-06-01T07:52:38.444Z,3.60
2019-06-01T07:55:07.162Z,2.87
2019-06-01T07:57:35.882Z,3.60
2019-06-01T08:00:08.759Z,4.05
2019-06-01T08:02:37.492Z,4.03
2019-06-01T08:05:08.322Z,3.87
2019-06-01T08:07:37.198Z,3.77
2019-06-01T08:10:06.932Z,3.42
2019-06-01T08:12:39.272Z,3.75
2019-06-01T08:15:08.414Z,3.20
2019-06-01T08:17:37.181Z,3.52
2019-06-01T08:20:06.598Z,3.60
2019-06-01T08:22:35.417Z,4.40
2019-06-01T08:25:06.225Z,3.70
2019-06-01T08:27:34.954Z,3.20
2019-06-01T08:30:05.543Z,3.67
2019-06-01T08:32:34.230Z,3.98
2019-06-01T08:35:08.412Z,3.67
2019-06-01T08:37:33.670Z,3.40
2019-06-01T08:40:02.417Z,4.17
2019-06-01T08:42:31.620Z,3.08
2019-06-01T08:45:00.476Z,2.70
2019-06-01T08:47:30.001Z,2.40
2019-06-01T08:49:58.825Z,2.80
2019-06-01T08:52:28.084Z,2.72
2019-06-01T08:54:56.886Z,2.40
2019-06-01T08:57:26.100Z,2.87
2019-06-01T08:59:54.920Z,2.30
2019-06-01T09:02:24.570Z,2.98
2019-06-01T09:04:53.569Z,2.45
2019-06-01T09:07:22.293Z,2.65
2019-06-01T09:09:51.029Z,3.30
2019-06-01T09:12:19.799Z,3.22
2019-06-01T09:14:48.505Z,3.37
2019-06-01T09:17:18.827Z,3.50
2019-06-01T09:19:47.806Z,3.00
2019-06-01T09:22:16.530Z,2.95
2019-06-01T09:24:45.266Z,3.08
2019-06-01T09:27:13.991Z,3.17
2019-06-01T09:29:44.787Z,1.98
2019-06-01T09:32:13.129Z,2.42
2019-06-01T09:34:41.852Z,2.45
2019-06-01T09:37:10.572Z,3.22
2019-06-01T09:39:39.422Z,2.58
2019-06-01T09:42:08.167Z,2.80
2019-06-01T09:44:37.338Z,2.60
2019-06-01T09:49:34.170Z,2.65
2019-06-01T09:52:03.302Z,2.35
2019-06-01T09:54:33.089Z,2.58
2019-06-01T09:57:02.476Z,2.40
2019-06-01T09:59:31.966Z,2.47
2019-06-01T10:02:00.869Z,2.70
2019-06-01T10:04:30.194Z,2.05
2019-06-01T10:06:59.096Z,2.37
2019-06-01T10:09:27.833Z,3.02
2019-06-01T10:11:56.563Z,1.65
2019-06-01T10:14:25.286Z,2.30
2019-06-01T10:16:59.668Z,2.15
2019-06-01T10:19:28.352Z,2.58
2019-06-01T10:21:57.068Z,2.20
2019-06-01T10:24:25.803Z,1.85
2019-06-01T10:26:54.602Z,1.50
2019-06-01T10:29:23.323Z,2.10
2019-06-01T10:31:52.042Z,1.65
2019-06-01T10:34:20.774Z,1.90
2019-06-01T10:36:49.486Z,2.08
2019-06-01T10:39:19.805Z,2.05
2019-06-01T10:41:48.679Z,1.60
2019-06-01T10:44:24.732Z,2.08
2019-06-01T10:46:56.653Z,2.00
2019-06-01T10:49:24.007Z,1.60
2019-06-01T10:51:53.106Z,1.70
2019-06-01T10:54:21.835Z,1.80
2019-06-01T10:56:50.696Z,2.12
2019-06-01T10:59:19.492Z,2.00
2019-06-01T11:01:48.221Z,1.57
2019-06-01T11:04:16.948Z,1.50
2019-06-01T11:06:48.582Z,1.42
2019-06-01T11:09:27.521Z,1.80
2019-06-01T11:11:56.240Z,1.62
2019-06-01T11:14:24.957Z,1.60
2019-06-01T11:16:56.552Z,1.85
2019-06-01T11:19:24.087Z,1.60
2019-06-01T11:21:52.808Z,2.05
2019-06-01T11:24:21.635Z,2.20
2019-06-01T11:26:50.358Z,2.17
2019-06-01T11:29:19.100Z,1.80
2019-06-01T11:31:47.826Z,1.77
2019-06-01T11:34:16.561Z,1.60
2019-06-01T11:37:03.504Z,1.45
2019-06-01T11:39:15.645Z,1.50
2019-06-01T11:41:44.810Z,1.55
2019-06-01T11:44:13.599Z,1.50
2019-06-01T11:46:42.986Z,1.70
2019-06-01T11:49:11.783Z,1.92
2019-06-01T11:51:41.502Z,1.75
2019-06-01T11:54:10.341Z,1.50
2019-06-01T11:56:39.220Z,1.77
2019-06-01T11:59:08.008Z,1.82
2019-06-01T12:01:37.712Z,1.57
2019-06-01T12:04:06.559Z,1.77
2019-06-01T12:06:35.674Z,1.70
2019-06-01T12:11:33.770Z,1.30
2019-06-01T12:14:02.511Z,1.70
2019-06-01T12:16:31.226Z,2.98
2019-06-01T12:18:59.955Z,2.02
2019-06-01T12:21:28.681Z,1.80
2019-06-01T12:23:57.410Z,1.42
2019-06-01T12:26:26.135Z,1.50
2019-06-01T12:28:54.858Z,1.65
2019-06-01T12:31:23.593Z,2.15
2019-06-01T12:33:52.325Z,1.87
2019-06-01T12:36:21.043Z,1.60
2019-06-01T12:38:53.519Z,1.75
2019-06-01T12:41:23.048Z,1.70
2019-06-01T12:44:09.001Z,1.87
2019-06-01T12:46:39.853Z,1.98
2019-06-01T12:49:09.059Z,1.72
2019-06-01T12:54:06.375Z,1.35
2019-06-01T12:56:35.199Z,1.77
2019-06-01T12:59:04.146Z,1.98
2019-06-01T13:01:32.947Z,1.67
2019-06-01T13:04:01.871Z,1.60
2019-06-01T13:06:30.791Z,1.40
2019-06-01T13:08:59.526Z,1.67
2019-06-01T13:11:28.249Z,1.32
2019-06-01T13:13:57.061Z,1.52
2019-06-01T13:16:25.794Z,2.22
2019-06-01T13:18:54.624Z,2.12
2019-06-01T13:21:23.356Z,2.20
2019-06-01T13:23:52.147Z,1.55
2019-06-01T13:26:20.844Z,1.60
2019-06-01T13:28:50.511Z,1.90
2019-06-01T13:31:19.266Z,1.90
2019-06-01T13:33:50.712Z,2.20
2019-06-01T13:36:18.560Z,1.85
2019-06-01T13:38:47.288Z,2.25
2019-06-01T13:41:16.012Z,2.87
2019-06-01T13:43:45.241Z,2.25
2019-06-01T13:46:14.102Z,1.90
2019-06-01T13:48:43.558Z,2.22
2019-06-01T13:51:13.072Z,3.00
2019-06-01T13:53:41.879Z,2.47
2019-06-01T13:56:10.600Z,2.40
2019-06-01T13:58:39.435Z,2.50
2019-06-01T14:01:08.148Z,2.83
2019-06-01T14:03:36.875Z,3.22
2019-06-01T14:06:05.622Z,2.37
2019-06-01T14:08:34.345Z,2.65
2019-06-01T14:11:03.175Z,2.40
2019-06-01T14:13:31.893Z,2.50
2019-06-01T14:16:00.619Z,2.72
2019-06-01T14:18:32.043Z,3.02
2019-06-01T14:21:00.902Z,2.52
2019-06-01T14:23:29.642Z,2.75
2019-06-01T14:25:58.397Z,2.20
2019-06-01T14:28:27.120Z,2.77
2019-06-01T14:30:56.469Z,2.83
2019-06-01T14:33:25.461Z,2.80
2019-06-01T14:35:54.604Z,2.70
2019-06-01T14:38:23.501Z,2.60
2019-06-01T14:40:53.593Z,2.30
2019-06-01T14:43:22.443Z,2.60
2019-06-01T14:45:51.550Z,2.50
2019-06-01T14:48:20.391Z,3.00
2019-06-01T14:50:49.544Z,2.10
2019-06-01T14:53:18.347Z,2.40
2019-06-01T14:55:47.683Z,2.47
2019-06-01T14:58:18.490Z,1.98
2019-06-01T15:00:48.456Z,2.22
2019-06-01T15:03:17.187Z,1.85
2019-06-01T15:08:15.101Z,1.75
2019-06-01T15:10:43.813Z,1.82
2019-06-01T15:13:12.547Z,1.70
2019-06-01T15:15:41.285Z,1.75
2019-06-01T15:18:10.050Z,1.85
2019-06-01T15:20:38.766Z,2.02
2019-06-01T15:23:07.578Z,1.70
2019-06-01T15:25:36.405Z,1.70
2019-06-01T15:28:05.134Z,1.67
2019-06-01T15:30:33.868Z,1.75
2019-06-01T15:33:03.380Z,1.20
2019-06-01T15:35:32.258Z,1.42
2019-06-01T15:40:30.581Z,1.40
2019-06-01T15:45:28.271Z,1.45
2019-06-01T15:47:57.782Z,1.80
2019-06-01T15:50:26.635Z,1.60
2019-06-01T15:52:55.376Z,1.60
2019-06-01T15:55:24.084Z,1.60
2019-06-01T15:57:52.821Z,1.25
2019-06-01T16:00:21.695Z,1.50
2019-06-01T16:02:50.436Z,1.45
2019-06-01T16:05:19.168Z,1.25
2019-06-01T16:07:47.915Z,1.37
2019-06-01T16:10:19.598Z,1.47
2019-06-01T16:12:48.315Z,1.35
2019-06-01T16:15:17.249Z,1.75
2019-06-01T16:17:45.969Z,1.52
2019-06-01T16:20:14.900Z,1.42
2019-06-01T16:25:12.969Z,1.40
2019-06-01T16:27:41.724Z,1.60
2019-06-01T16:32:39.860Z,1.52
2019-06-01T16:35:08.836Z,1.70
2019-06-01T16:37:37.569Z,1.40
2019-06-01T16:42:37.221Z,1.42
2019-06-01T16:47:36.798Z,1.30
2019-06-01T16:52:37.133Z,1.35
2019-06-01T16:57:37.290Z,1.98
2019-06-01T17:00:09.422Z,1.90
2019-06-01T17:02:38.537Z,2.08
2019-06-01T17:05:08.367Z,1.87
2019-06-01T17:07:38.641Z,1.60
2019-06-01T17:10:24.589Z,1.25
2019-06-01T17:12:43.707Z,2.30
2019-06-01T17:15:16.910Z,2.02
2019-06-01T17:17:48.909Z,2.30
2019-06-01T17:20:40.091Z,2.55
2019-06-01T17:23:24.269Z,2.30
2019-06-01T17:25:39.711Z,1.90
2019-06-01T17:28:09.291Z,1.75
2019-06-01T17:30:38.189Z,2.25
2019-06-01T17:33:06.913Z,2.20
2019-06-01T17:35:36.366Z,2.40
2019-06-01T17:38:07.322Z,2.62
2019-06-01T17:40:41.429Z,2.17
2019-06-01T17:43:07.179Z,2.05
2019-06-01T17:45:36.324Z,2.45
2019-06-01T17:48:24.294Z,1.72
2019-06-01T17:50:37.635Z,1.62
2019-06-01T17:53:06.718Z,1.82
2019-06-01T17:55:40.985Z,2.40
2019-06-01T17:58:10.257Z,1.80
2019-06-01T18:00:40.105Z,1.62
2019-06-01T18:03:10.100Z,2.20
2019-06-01T18:05:44.569Z,1.52
2019-06-01T18:08:15.469Z,2.00
2019-06-01T18:10:53.882Z,2.00
2019-06-01T18:13:20.632Z,1.72
2019-06-01T18:15:51.357Z,1.98
2019-06-01T18:18:21.692Z,2.15
2019-06-01T18:20:51.346Z,2.12
2019-06-01T18:23:20.709Z,2.33
2019-06-01T18:28:19.645Z,2.20
2019-06-01T18:30:52.308Z,2.05
2019-06-01T18:33:23.766Z,1.80
2019-06-01T18:35:53.412Z,1.80
2019-06-01T18:38:27.292Z,1.62
2019-06-01T18:41:09.441Z,1.55
2019-06-01T18:43:28.848Z,2.12
2019-06-01T18:45:59.304Z,1.67
2019-06-01T18:48:28.109Z,1.90
2019-06-01T18:50:57.086Z,2.22
2019-06-01T18:53:25.872Z,1.67
2019-06-01T18:55:57.443Z,1.72
2019-06-01T18:58:28.292Z,2.10
2019-06-01T19:00:58.404Z,1.90
2019-06-01T19:03:27.941Z,1.82
2019-06-01T19:05:59.317Z,1.55
2019-06-01T19:08:29.456Z,1.57
2019-06-01T19:10:59.311Z,1.75
2019-06-01T19:13:28.675Z,1.37
2019-06-01T19:18:25.347Z,2.67
2019-06-01T19:20:54.108Z,1.50
2019-06-01T19:23:23.105Z,1.80
2019-06-01T19:25:51.805Z,1.50
2019-06-01T19:28:20.509Z,1.47
2019-06-01T19:30:49.481Z,1.25
2019-06-01T19:33:19.536Z,1.77
2019-06-01T19:35:49.692Z,1.42
2019-06-01T19:38:19.607Z,1.75
2019-06-01T19:40:48.343Z,1.52
2019-06-01T19:43:17.698Z,1.95
2019-06-01T19:45:46.590Z,1.60
2019-06-01T19:48:16.537Z,2.55
2019-06-01T19:50:45.412Z,1.45
2019-06-01T19:53:14.748Z,1.20
2019-06-01T19:55:43.571Z,1.32
2019-06-01T19:58:12.365Z,1.60
2019-06-01T20:00:41.931Z,1.67
2019-06-01T20:03:12.428Z,1.10
2019-06-01T20:05:46.753Z,1.60
2019-06-01T20:08:18.063Z,1.65
2019-06-01T20:10:47.397Z,1.60
2019-06-01T20:13:17.225Z,1.50
2019-06-01T20:15:49.046Z,1.67
2019-06-01T20:18:19.069Z,1.80
2019-06-01T20:20:49.157Z,1.60
2019-06-01T20:23:17.837Z,1.57
2019-06-01T20:25:46.586Z,1.50
2019-06-01T20:28:15.622Z,1.92
2019-06-01T20:30:44.654Z,1.52
2019-06-01T20:33:14.058Z,1.85
2019-06-01T20:38:12.119Z,2.00
2019-06-01T20:40:41.135Z,1.62
2019-06-01T20:43:09.866Z,1.70
2019-06-01T20:45:38.654Z,1.62
2019-06-01T20:48:07.395Z,1.98
2019-06-01T20:50:36.127Z,2.33
2019-06-01T20:53:04.955Z,1.98
2019-06-01T20:55:33.692Z,2.42
2019-06-01T20:58:02.430Z,2.15
2019-06-01T21:00:32.032Z,2.42
2019-06-01T21:03:00.856Z,2.27
2019-06-01T21:05:29.684Z,2.00
2019-06-01T21:07:58.474Z,1.70
2019-06-01T21:10:30.710Z,2.10
2019-06-01T21:12:59.145Z,2.60
2019-06-01T21:15:27.868Z,2.30
2019-06-01T21:17:56.594Z,2.12
2019-06-01T21:20:29.813Z,2.22
2019-06-01T21:22:55.823Z,2.10
2019-06-01T21:25:25.377Z,2.35
2019-06-01T21:27:54.352Z,2.10
2019-06-01T21:30:24.293Z,2.12
2019-06-01T21:32:53.451Z,2.85
2019-06-01T21:35:23.357Z,2.70
2019-06-01T21:37:52.193Z,2.20
2019-06-01T21:40:21.533Z,2.15
2019-06-01T21:47:48.298Z,2.65
2019-06-01T21:50:18.199Z,2.50
2019-06-01T21:52:49.522Z,2.25
2019-06-01T21:55:18.304Z,3.00
2019-06-01T21:57:47.016Z,2.40
2019-06-01T22:00:20.252Z,2.55
2019-06-01T22:02:49.416Z,2.92
2019-06-01T22:05:18.663Z,3.17
2019-06-01T22:07:47.439Z,3.15
2019-06-01T22:10:17.049Z,2.50
2019-06-01T22:12:45.856Z,2.95
2019-06-01T22:15:14.692Z,3.08
2019-06-01T22:17:43.427Z,3.55
2019-06-01T22:20:12.303Z,3.72
2019-06-01T22:22:41.040Z,3.92
2019-06-01T22:25:09.775Z,3.83
2019-06-01T22:27:38.556Z,3.83
2019-06-01T22:30:08.734Z,4.03
2019-06-01T22:32:37.449Z,4.00
2019-06-01T22:35:07.982Z,4.05
2019-06-01T22:37:36.799Z,3.98
2019-06-01T22:40:09.880Z,3.77
2019-06-01T22:42:38.637Z,4.47
2019-06-01T22:45:07.829Z,4.33
2019-06-01T22:47:45.510Z,4.67
2019-06-01T22:50:15.686Z,5.10
2019-06-01T22:52:44.426Z,4.83
2019-06-01T22:55:13.260Z,4.92
2019-06-01T22:57:43.313Z,4.47
2019-06-01T23:00:12.490Z,4.37
2019-06-01T23:02:41.273Z,4.62
2019-06-01T23:05:10.309Z,5.08
2019-06-01T23:07:39.041Z,4.17
2019-06-01T23:10:10.553Z,4.10
2019-06-01T23:12:39.255Z,4.55
2019-06-01T23:15:08.171Z,4.37
2019-06-01T23:17:36.907Z,5.17
2019-06-01T23:20:07.417Z,4.55
2019-06-01T23:22:36.229Z,5.08
2019-06-01T23:25:05.721Z,5.40
2019-06-01T23:30:02.289Z,5.22
2019-06-01T23:32:31.016Z,5.20
2019-06-01T23:34:59.746Z,4.03
2019-06-01T23:37:28.836Z,4.12
2019-06-01T23:39:57.742Z,4.20
2019-06-01T23:42:26.783Z,4.37
2019-06-01T23:44:55.575Z,3.92
2019-06-01T23:47:25.690Z,4.90
2019-06-01T23:49:54.718Z,4.33
2019-06-01T23:52:23.575Z,4.95
2019-06-01T23:54:52.548Z,5.35
2019-06-01T23:57:21.342Z,4.70
2019-06-01T23:59:50.072Z,4.70
